Time;durP1;ratioP1;P1;durP2;ratioP2;P2;SDS_P1;SDS_P2;PMS_P1;PMS_P2;Temp;Humidity;BMP_temperature;BMP_pressure;BME280_temperature;BME280_humidity;BME280_pressure;Samples;Min_cycle;Max_cycle;Signal;HPM_P1;HPM_P2
2022/01/28 00:00:18;;;;;;;11.20;8.02;;;-5.90;99.90;;;;;;4350426;32;20067;-64
2022/01/28 00:05:17;;;;;;;11.95;8.80;;;-5.90;99.90;;;;;;4349960;32;20214;-65
2022/01/28 00:07:43;;;;;;;13.13;8.98;;;-5.90;99.90;;;;;;4349509;32;20453;-64
2022/01/28 00:10:10;;;;;;;10.85;8.38;;;-5.90;99.90;;;;;;4338896;32;20113;-63
2022/01/28 00:12:47;;;;;;;12.68;9.38;;;-5.90;99.90;;;;;;4338027;32;20508;-63
2022/01/28 00:15:23;;;;;;;11.68;8.48;;;-5.90;99.90;;;;;;4350518;32;20071;-63
2022/01/28 00:39:29;;;;;;;9.75;6.62;;;-6.20;99.90;;;;;;4339074;32;20097;-65
2022/01/28 00:41:55;;;;;;;9.07;6.30;;;-6.20;99.90;;;;;;4363313;32;20078;-64
2022/01/28 00:44:22;;;;;;;9.60;6.35;;;-6.20;99.90;;;;;;4337097;32;20506;-64
2022/01/28 00:46:48;;;;;;;9.55;5.65;;;-6.40;99.90;;;;;;4336945;32;20109;-64
2022/01/28 00:49:14;;;;;;;8.57;6.10;;;-6.50;99.90;;;;;;4363281;32;20093;-64
2022/01/28 00:51:41;;;;;;;8.50;6.00;;;-6.40;99.90;;;;;;4349697;32;20109;-63
2022/01/28 00:54:07;;;;;;;8.13;5.62;;;-6.50;99.90;;;;;;4363357;32;20497;-65
2022/01/28 00:56:34;;;;;;;7.12;5.20;;;-6.50;99.90;;;;;;4348971;32;20078;-63
2022/01/28 00:59:01;;;;;;;7.65;5.50;;;-6.50;99.90;;;;;;4349276;32;20078;-65
2022/01/28 01:01:30;;;;;;;8.57;5.75;;;-6.40;99.90;;;;;;4349469;32;20114;-64
2022/01/28 01:04:00;;;;;;;7.62;5.40;;;-6.50;99.90;;;;;;4362994;32;20508;-63
2022/01/28 01:06:28;;;;;;;8.50;5.62;;;-6.50;99.90;;;;;;4336743;32;20082;-63
2022/01/28 01:08:55;;;;;;;7.78;5.30;;;-6.50;99.90;;;;;;4349008;32;20093;-65
2022/01/28 01:11:22;;;;;;;7.70;5.25;;;-6.50;99.90;;;;;;4349231;32;20539;-64
2022/01/28 01:13:50;;;;;;;7.62;5.10;;;-6.50;99.90;;;;;;4348916;32;20089;-64
2022/01/28 01:16:25;;;;;;;8.15;5.40;;;-6.60;99.90;;;;;;4349546;32;20087;-64
2022/01/28 01:21:24;;;;;;;8.07;5.28;;;-6.50;99.90;;;;;;4362529;32;20070;-64
2022/01/28 01:23:54;;;;;;;7.30;4.90;;;-6.50;99.90;;;;;;4336651;32;20086;-64
2022/01/28 01:26:32;;;;;;;7.65;5.07;;;-6.40;99.90;;;;;;4362507;32;20147;-64
2022/01/28 01:28:59;;;;;;;6.93;5.05;;;-6.60;99.90;;;;;;4325662;32;20214;-64
2022/01/28 01:31:26;;;;;;;7.60;4.78;;;-6.50;99.90;;;;;;4348826;32;20066;-64
2022/01/28 01:34:03;;;;;;;8.00;5.40;;;-6.50;99.90;;;;;;4349353;32;20079;-65
2022/01/28 01:36:30;;;;;;;6.70;4.82;;;-6.50;99.90;;;;;;4350492;32;20087;-63
2022/01/28 01:38:56;;;;;;;7.93;5.45;;;-6.60;99.90;;;;;;4362549;32;20101;-63
2022/01/28 01:41:34;;;;;;;8.00;5.68;;;-6.70;99.90;;;;;;4336367;32;20515;-63
2022/01/28 01:44:06;;;;;;;7.85;5.68;;;-6.70;99.90;;;;;;4362313;32;20086;-65
2022/01/28 01:52:05;;;;;;;8.00;5.65;;;-6.70;99.90;;;;;;4350443;32;20158;-64
2022/01/28 01:54:43;;;;;;;8.30;5.22;;;-6.70;99.90;;;;;;4362140;32;20070;-64
2022/01/28 01:57:12;;;;;;;7.57;5.25;;;-6.70;99.90;;;;;;4362365;32;20512;-63
2022/01/28 01:59:41;;;;;;;8.70;5.53;;;-6.70;99.90;;;;;;4336099;32;20153;-63
2022/01/28 02:02:08;;;;;;;8.48;6.00;;;-6.70;99.90;;;;;;4336729;32;20091;-63
2022/01/28 02:04:34;;;;;;;8.13;5.93;;;-6.70;99.90;;;;;;4362452;32;20165;-65
2022/01/28 02:07:01;;;;;;;8.40;5.80;;;-6.70;99.90;;;;;;4348479;32;20540;-64
2022/01/28 02:09:28;;;;;;;7.60;5.20;;;-6.70;99.90;;;;;;4349146;32;20070;-65
2022/01/28 02:11:54;;;;;;;8.05;5.55;;;-6.70;99.90;;;;;;4339766;32;20078;-63
2022/01/28 02:14:21;;;;;;;7.65;5.68;;;-6.60;99.90;;;;;;4337436;32;20077;-63
2022/01/28 02:16:47;;;;;;;8.40;5.93;;;-6.70;99.90;;;;;;4336037;32;20086;-63
2022/01/28 02:19:14;;;;;;;8.82;5.47;;;-6.70;99.90;;;;;;4348288;32;20082;-63
2022/01/28 02:21:52;;;;;;;7.80;5.80;;;-6.60;99.90;;;;;;4362240;32;20124;-63
2022/01/28 02:24:26;;;;;;;9.18;6.47;;;-6.60;99.90;;;;;;4348185;32;20078;-64
2022/01/28 02:26:52;;;;;;;8.30;5.87;;;-6.60;99.90;;;;;;4336249;32;20153;-65
2022/01/28 02:29:28;;;;;;;8.23;5.95;;;-6.60;99.90;;;;;;4348306;32;20075;-63
2022/01/28 02:31:56;;;;;;;8.23;5.70;;;-6.50;99.90;;;;;;4361706;32;20159;-63
2022/01/28 02:34:22;;;;;;;9.73;6.72;;;-6.50;99.90;;;;;;4335895;32;20501;-63
2022/01/28 02:36:48;;;;;;;7.18;5.60;;;-6.50;99.90;;;;;;4335851;32;20092;-64
2022/01/28 02:39:15;;;;;;;8.32;5.75;;;-6.50;99.90;;;;;;4361789;32;20062;-65
2022/01/28 02:41:45;;;;;;;7.95;5.60;;;-6.60;99.90;;;;;;4348006;32;20078;-63
2022/01/28 02:44:21;;;;;;;8.07;5.65;;;-6.60;99.90;;;;;;4349179;32;20489;-63
2022/01/28 02:47:00;;;;;;;7.47;5.50;;;-6.60;99.90;;;;;;4348725;32;20090;-64
2022/01/28 02:49:33;;;;;;;7.53;5.50;;;-6.60;99.90;;;;;;4349971;32;20098;-65
2022/01/28 02:52:01;;;;;;;8.57;5.60;;;-6.50;99.90;;;;;;4348746;32;20507;-64
2022/01/28 02:54:28;;;;;;;7.43;5.80;;;-6.40;99.90;;;;;;4335835;32;20078;-64
2022/01/28 02:57:02;;;;;;;8.10;5.62;;;-6.40;99.90;;;;;;4348384;32;20512;-63
2022/01/28 02:59:28;;;;;;;9.35;6.22;;;-6.40;99.90;;;;;;4348872;32;20086;-63
2022/01/28 03:01:54;;;;;;;9.30;6.50;;;-6.40;99.90;;;;;;4347489;32;20078;-64
2022/01/28 03:07:08;;;;;;;10.43;7.00;;;-6.30;99.90;;;;;;4321941;32;20084;-63
2022/01/28 03:09:51;;;;;;;10.95;7.55;;;-6.30;99.90;;;;;;4348068;32;20085;-65
2022/01/28 03:12:21;;;;;;;9.65;7.20;;;-6.20;99.90;;;;;;4347749;32;20081;-64
2022/01/28 03:15:07;;;;;;;10.43;7.35;;;-6.10;99.90;;;;;;4347470;32;20168;-64
2022/01/28 03:22:46;;;;;;;8.82;6.75;;;-6.10;99.90;;;;;;4349021;32;20581;-63
2022/01/28 03:25:14;;;;;;;8.43;6.20;;;-6.10;99.90;;;;;;4347497;32;20163;-62
2022/01/28 03:27:52;;;;;;;11.10;7.18;;;-6.00;99.90;;;;;;4361204;32;20078;-63
2022/01/28 03:30:19;;;;;;;9.82;6.85;;;-6.00;99.90;;;;;;4361556;32;20149;-63
2022/01/28 03:32:46;;;;;;;9.98;6.95;;;-5.90;99.90;;;;;;4347160;32;20074;-64
2022/01/28 03:35:15;;;;;;;9.70;6.78;;;-5.90;99.90;;;;;;4347594;32;20520;-65
2022/01/28 03:37:42;;;;;;;10.38;7.00;;;-6.00;99.90;;;;;;4360957;32;20098;-63
2022/01/28 03:40:10;;;;;;;9.20;6.75;;;-6.00;99.90;;;;;;4361362;32;20098;-63
2022/01/28 03:42:38;;;;;;;9.05;6.60;;;-6.00;99.90;;;;;;4335100;32;20155;-65
2022/01/28 03:45:06;;;;;;;9.45;6.60;;;-6.00;99.90;;;;;;4322843;32;20269;-63
2022/01/28 03:47:33;;;;;;;9.63;6.62;;;-6.00;99.90;;;;;;4335162;32;20071;-64
2022/01/28 03:49:59;;;;;;;9.90;6.43;;;-5.90;99.90;;;;;;4361315;32;20513;-64
2022/01/28 03:52:25;;;;;;;9.88;6.95;;;-6.00;99.90;;;;;;4347618;32;20087;-63
2022/01/28 03:54:52;;;;;;;9.23;6.65;;;-5.90;99.90;;;;;;4335109;32;20086;-64
2022/01/28 03:57:19;;;;;;;9.13;6.32;;;-5.90;99.90;;;;;;4335016;32;20525;-63
2022/01/28 03:59:45;;;;;;;10.15;6.68;;;-5.90;99.90;;;;;;4322939;32;20074;-63
2022/01/28 04:02:11;;;;;;;9.63;6.55;;;-5.90;99.90;;;;;;4347421;32;20535;-63
2022/01/28 04:12:44;;;;;;;10.02;6.03;;;-5.80;99.90;;;;;;4361410;32;20094;-63
2022/01/28 04:17:48;;;;;;;9.30;6.55;;;-5.70;99.90;;;;;;4361442;32;20497;-64
2022/01/28 04:20:15;;;;;;;9.68;6.62;;;-5.60;99.90;;;;;;4335636;32;20096;-64
2022/01/28 04:22:41;;;;;;;10.13;6.82;;;-5.70;99.90;;;;;;4347062;32;20091;-63
2022/01/28 04:25:08;;;;;;;10.63;6.55;;;-5.70;99.90;;;;;;4360754;32;20073;-64
2022/01/28 04:27:34;;;;;;;9.48;6.80;;;-5.60;99.90;;;;;;4347070;32;20086;-64
2022/01/28 04:30:01;;;;;;;10.50;6.65;;;-5.60;99.90;;;;;;4347757;32;20089;-64
2022/01/28 04:32:29;;;;;;;9.80;6.53;;;-5.50;99.90;;;;;;4349977;32;20452;-63
2022/01/28 04:34:58;;;;;;;9.10;6.72;;;-5.50;99.90;;;;;;4349631;32;20167;-65
2022/01/28 04:40:33;;;;;;;10.35;6.95;;;-5.50;99.90;;;;;;4302437;33;20157;-63
2022/01/28 04:43:28;;;;;;;11.05;7.25;;;-5.50;99.90;;;;;;4290639;33;20601;-64
2022/01/28 04:46:08;;;;;;;;;;;-5.40;99.90;;;;;;4335970;32;20079;-63
2022/01/28 04:48:43;;;;;;;10.25;6.70;;;-5.50;99.90;;;;;;4336962;32;20381;-63
2022/01/28 04:53:53;;;;;;;8.80;5.32;;;-5.70;99.90;;;;;;4350303;32;20077;-63
2022/01/28 04:56:43;;;;;;;10.57;5.87;;;-5.70;99.90;;;;;;4363083;32;20077;-63
2022/01/28 04:59:38;;;;;;;9.13;5.40;;;-5.80;99.90;;;;;;4339345;32;20089;-63
2022/01/28 05:02:30;;;;;;;8.85;5.55;;;-5.60;99.90;;;;;;4352583;32;20070;-62
2022/01/28 05:10:35;;;;;;;10.15;6.97;;;-5.40;99.90;;;;;;4363068;32;20584;-63
2022/01/28 05:13:30;;;;;;;12.18;7.87;;;-5.30;99.90;;;;;;4362957;32;20521;-63
2022/01/28 05:29:02;;;;;;;10.60;6.87;;;-5.60;99.90;;;;;;4337016;32;20117;-65
2022/01/28 05:31:29;;;;;;;9.38;6.20;;;-5.60;99.90;;;;;;4348820;32;20094;-64
2022/01/28 05:33:55;;;;;;;9.27;6.18;;;-5.50;99.90;;;;;;4337240;32;20078;-64
2022/01/28 05:36:22;;;;;;;8.55;5.32;;;-5.50;99.90;;;;;;4348436;32;20090;-64
2022/01/28 05:38:49;;;;;;;21.00;7.82;;;-5.50;99.90;;;;;;4349415;32;20153;-65
2022/01/28 05:41:17;;;;;;;8.57;5.93;;;-5.30;99.90;;;;;;4349087;32;20153;-65
2022/01/28 05:43:43;;;;;;;11.23;6.75;;;-5.30;99.90;;;;;;4362699;32;20078;-63
2022/01/28 05:46:09;;;;;;;10.77;5.95;;;-5.30;99.90;;;;;;4349655;32;20490;-64
2022/01/28 05:48:36;;;;;;;9.30;5.95;;;-5.10;99.90;;;;;;4349124;32;20072;-62
2022/01/28 05:51:02;;;;;;;7.80;5.12;;;-5.10;99.90;;;;;;4336292;32;20067;-63
2022/01/28 05:53:29;;;;;;;8.52;5.00;;;-5.10;99.90;;;;;;4338847;32;20088;-62
2022/01/28 05:55:55;;;;;;;8.45;5.37;;;-5.00;99.90;;;;;;4346195;32;20067;-64
2022/01/28 05:58:22;;;;;;;8.68;5.65;;;-5.20;99.90;;;;;;4347469;32;20085;-66
2022/01/28 06:00:48;;;;;;;6.97;4.62;;;-5.10;99.90;;;;;;4360587;32;20090;-63
2022/01/28 06:03:14;;;;;;;7.78;5.22;;;-5.10;99.90;;;;;;4350339;32;20508;-63
2022/01/28 06:05:41;;;;;;;8.23;5.47;;;-4.90;99.90;;;;;;4336039;32;20537;-63
2022/01/28 06:08:07;;;;;;;10.00;5.55;;;-4.90;99.90;;;;;;4336160;32;20088;-64
2022/01/28 06:10:34;;;;;;;9.93;5.60;;;-4.90;99.90;;;;;;4348452;32;20085;-64
2022/01/28 06:13:00;;;;;;;15.07;8.07;;;-4.90;99.90;;;;;;4362397;32;20120;-63
2022/01/28 06:15:26;;;;;;;12.45;7.93;;;-4.90;99.90;;;;;;4348392;32;20067;-64
2022/01/28 06:17:53;;;;;;;14.75;7.50;;;-5.20;99.90;;;;;;4348020;32;20148;-64
2022/01/28 06:20:19;;;;;;;12.95;8.48;;;-5.10;99.90;;;;;;4336187;32;20059;-62
2022/01/28 06:22:46;;;;;;;15.23;8.00;;;-5.10;99.90;;;;;;4362418;32;20179;-64
2022/01/28 06:25:13;;;;;;;11.55;6.95;;;-5.00;99.90;;;;;;4335919;32;20651;-62
2022/01/28 06:27:40;;;;;;;7.30;4.03;;;-5.20;99.90;;;;;;4348093;32;20158;-62
2022/01/28 06:30:07;;;;;;;11.00;7.55;;;-5.10;99.90;;;;;;4335740;32;20075;-63
2022/01/28 06:32:34;;;;;;;12.50;7.85;;;-4.90;99.90;;;;;;4335657;32;20457;-63
2022/01/28 06:35:07;;;;;;;13.60;8.82;;;-5.00;99.90;;;;;;4348270;32;20505;-63
2022/01/28 06:37:39;;;;;;;12.27;8.15;;;-5.10;99.90;;;;;;4324081;32;20078;-64
2022/01/28 06:40:13;;;;;;;13.80;9.45;;;-5.10;99.90;;;;;;4347882;32;20066;-63
2022/01/28 06:42:40;;;;;;;13.57;9.27;;;-5.20;99.90;;;;;;4347784;32;20149;-64
2022/01/28 06:45:08;;;;;;;15.80;9.55;;;-4.90;99.90;;;;;;4335794;32;20082;-62
2022/01/28 06:47:35;;;;;;;16.60;11.30;;;-4.90;99.90;;;;;;4335831;32;20488;-64
2022/01/28 06:50:07;;;;;;;17.12;12.57;;;-4.90;99.90;;;;;;4323637;32;20090;-64
2022/01/28 06:52:35;;;;;;;18.80;12.85;;;-5.00;99.90;;;;;;4338440;32;20065;-62
2022/01/28 06:55:02;;;;;;;17.37;11.27;;;-5.00;99.90;;;;;;4338370;32;20089;-64
2022/01/28 06:57:30;;;;;;;16.58;12.00;;;-5.00;99.90;;;;;;4335890;32;20508;-63
2022/01/28 06:59:57;;;;;;;16.55;10.82;;;-5.00;99.90;;;;;;4348133;32;20070;-63
2022/01/28 07:02:24;;;;;;;15.85;10.05;;;-5.10;99.90;;;;;;4348093;32;20151;-63
2022/01/28 07:04:50;;;;;;;15.50;10.35;;;-5.00;99.90;;;;;;4348043;32;20106;-63
2022/01/28 07:07:17;;;;;;;13.90;9.48;;;-4.90;99.90;;;;;;4334999;32;20070;-63
2022/01/28 07:09:44;;;;;;;16.02;10.15;;;-4.90;99.90;;;;;;4361521;32;20093;-63
2022/01/28 07:12:10;;;;;;;14.13;9.70;;;-4.80;99.90;;;;;;4347187;32;20590;-64
2022/01/28 07:14:37;;;;;;;13.82;9.55;;;-4.90;99.90;;;;;;4335416;32;20074;-63
2022/01/28 07:17:04;;;;;;;15.43;9.73;;;-4.80;99.90;;;;;;4335665;32;20094;-63
2022/01/28 07:19:30;;;;;;;15.32;9.63;;;-4.70;99.90;;;;;;4361506;32;20097;-62
2022/01/28 07:21:57;;;;;;;13.05;8.75;;;-4.50;99.90;;;;;;4347255;32;20468;-63
2022/01/28 07:24:24;;;;;;;15.05;10.43;;;-4.40;99.90;;;;;;4347618;32;20075;-63
2022/01/28 07:26:51;;;;;;;15.60;9.52;;;-4.50;99.90;;;;;;4347344;32;20170;-62
2022/01/28 07:29:18;;;;;;;13.98;9.50;;;-4.60;99.90;;;;;;4347393;32;20278;-64
2022/01/28 07:31:46;;;;;;;13.62;9.43;;;-4.50;99.90;;;;;;4335209;32;20497;-63
2022/01/28 07:34:12;;;;;;;14.40;9.38;;;-4.60;99.90;;;;;;4347375;32;20079;-62
2022/01/28 07:36:39;;;;;;;14.82;9.93;;;-4.60;99.90;;;;;;4335089;32;20155;-63
2022/01/28 07:39:07;;;;;;;14.38;9.82;;;-4.60;99.90;;;;;;4347332;32;20093;-63
2022/01/28 07:41:35;;;;;;;16.23;10.90;;;-4.70;99.90;;;;;;4322727;32;20086;-63
2022/01/28 07:44:01;;;;;;;17.10;11.23;;;-4.80;99.90;;;;;;4361121;32;20088;-63
2022/01/28 07:46:28;;;;;;;14.68;9.80;;;-4.90;99.90;;;;;;4335064;32;20077;-64
2022/01/28 07:48:54;;;;;;;18.73;11.57;;;-4.80;99.90;;;;;;4360913;32;20517;-63
2022/01/28 07:51:21;;;;;;;19.00;12.43;;;-4.70;99.90;;;;;;4347488;32;20085;-63
2022/01/28 07:53:47;;;;;;;23.77;14.87;;;-4.70;99.90;;;;;;4335234;32;20097;-64
2022/01/28 07:56:14;;;;;;;23.62;14.32;;;-4.50;99.90;;;;;;4335074;32;20520;-62
2022/01/28 07:58:41;;;;;;;22.20;12.37;;;-4.40;99.90;;;;;;4347538;32;20140;-63
2022/01/28 08:01:08;;;;;;;16.98;10.95;;;-4.10;99.90;;;;;;4335615;32;20086;-62
2022/01/28 08:03:35;;;;;;;19.90;13.13;;;-4.10;99.90;;;;;;4335025;32;20090;-64
2022/01/28 08:06:02;;;;;;;23.25;13.77;;;-4.10;99.90;;;;;;4336838;32;20074;-63
2022/01/28 08:08:28;;;;;;;21.35;14.40;;;-4.00;99.90;;;;;;4349712;32;20082;-63
2022/01/28 08:10:55;;;;;;;23.25;14.93;;;-4.00;99.90;;;;;;4337720;32;20125;-63
2022/01/28 08:13:22;;;;;;;30.20;18.80;;;-4.00;99.90;;;;;;4337993;32;20101;-64
2022/01/28 08:15:49;;;;;;;28.25;17.55;;;-4.00;99.90;;;;;;4337950;32;20547;-63
2022/01/28 08:18:16;;;;;;;34.10;18.45;;;-3.90;99.90;;;;;;4337408;32;20524;-64
2022/01/28 08:20:44;;;;;;;33.42;20.80;;;-4.00;99.90;;;;;;4363761;32;20514;-63
2022/01/28 08:23:10;;;;;;;36.10;21.27;;;-3.90;99.90;;;;;;4338382;32;20584;-63
2022/01/28 08:25:37;;;;;;;31.45;20.92;;;-4.10;99.90;;;;;;4363650;32;20136;-63
2022/01/28 08:28:05;;;;;;;35.05;21.17;;;-4.00;99.90;;;;;;4349431;32;20094;-64
2022/01/28 08:30:33;;;;;;;33.22;21.02;;;-3.90;99.90;;;;;;4349916;32;20090;-64
2022/01/28 08:32:59;;;;;;;28.60;19.52;;;-4.20;99.90;;;;;;4337494;32;20105;-64
2022/01/28 08:35:32;;;;;;;31.87;19.50;;;-4.10;99.90;;;;;;4349520;32;20085;-65
2022/01/28 08:37:59;;;;;;;34.45;20.52;;;-3.90;99.90;;;;;;4337629;32;20606;-64
2022/01/28 08:40:29;;;;;;;30.12;19.23;;;-4.00;99.90;;;;;;4350189;32;20151;-63
2022/01/28 08:42:56;;;;;;;29.02;18.95;;;-3.70;99.90;;;;;;4337837;32;20154;-64
2022/01/28 08:45:22;;;;;;;30.02;18.10;;;-3.60;99.90;;;;;;4349350;32;20593;-64
2022/01/28 08:47:49;;;;;;;29.73;17.48;;;-3.70;99.90;;;;;;4349313;32;20086;-64
2022/01/28 08:50:15;;;;;;;24.35;16.15;;;-3.90;99.90;;;;;;4349487;32;20106;-65
2022/01/28 08:52:46;;;;;;;26.08;17.77;;;-3.90;99.90;;;;;;4363585;32;20074;-64
2022/01/28 08:55:14;;;;;;;24.58;15.77;;;-3.90;99.90;;;;;;4349260;32;20078;-64
2022/01/28 08:57:44;;;;;;;22.52;14.63;;;-3.90;99.90;;;;;;4349710;32;20100;-63
2022/01/28 09:00:17;;;;;;;27.10;18.08;;;-3.90;99.90;;;;;;4325483;32;20177;-63
2022/01/28 09:02:45;;;;;;;21.80;15.40;;;-4.00;99.90;;;;;;4338714;32;20073;-63
2022/01/28 09:05:11;;;;;;;20.20;13.65;;;-3.80;99.90;;;;;;4336847;32;20155;-62
2022/01/28 09:07:38;;;;;;;20.00;13.43;;;-3.70;99.90;;;;;;4363047;32;20190;-63
2022/01/28 09:10:12;;;;;;;21.60;12.73;;;-3.70;99.90;;;;;;4337310;32;20067;-63
2022/01/28 09:12:48;;;;;;;18.98;12.75;;;-3.50;99.90;;;;;;4338220;32;20086;-63
2022/01/28 09:15:16;;;;;;;19.08;12.45;;;-3.60;99.90;;;;;;4337581;32;20080;-63
2022/01/28 09:17:43;;;;;;;20.73;13.13;;;-3.70;99.90;;;;;;4349364;32;20074;-64
2022/01/28 09:20:10;;;;;;;21.48;14.15;;;-3.70;99.90;;;;;;4362779;32;20144;-63
2022/01/28 09:22:36;;;;;;;24.67;14.45;;;-3.50;99.90;;;;;;4336522;32;20078;-63
2022/01/28 09:25:03;;;;;;;20.62;13.77;;;-3.60;99.90;;;;;;4349051;32;20075;-64
2022/01/28 09:27:30;;;;;;;19.40;13.98;;;-3.60;99.90;;;;;;4349223;32;20067;-63
2022/01/28 09:29:57;;;;;;;21.73;14.43;;;-3.80;99.90;;;;;;4349222;32;20089;-63
2022/01/28 09:32:23;;;;;;;22.02;14.80;;;-4.00;99.90;;;;;;4324924;32;20094;-63
2022/01/28 09:34:49;;;;;;;20.67;14.20;;;-3.70;99.90;;;;;;4349230;32;20078;-62
2022/01/28 09:37:16;;;;;;;20.50;13.75;;;-3.50;99.90;;;;;;4349303;32;20086;-63
2022/01/28 09:39:46;;;;;;;19.05;11.98;;;-3.40;99.90;;;;;;4349347;32;20081;-62
2022/01/28 09:42:16;;;;;;;20.00;12.93;;;-3.40;99.90;;;;;;4337912;32;20088;-62
2022/01/28 09:44:44;;;;;;;19.92;13.38;;;-3.50;99.90;;;;;;4350640;32;20092;-62
2022/01/28 09:47:11;;;;;;;20.50;11.80;;;-3.60;99.90;;;;;;4350790;32;20067;-63
2022/01/28 09:49:40;;;;;;;19.35;11.48;;;-3.70;99.90;;;;;;4338907;32;20098;-62
2022/01/28 09:52:09;;;;;;;17.30;10.70;;;-3.50;99.90;;;;;;4337814;32;20525;-63
2022/01/28 09:54:37;;;;;;;20.10;12.88;;;-3.40;99.90;;;;;;4336774;32;20163;-64
2022/01/28 09:57:06;;;;;;;18.65;13.40;;;-3.50;99.90;;;;;;4324616;32;20097;-62
2022/01/28 09:59:33;;;;;;;20.45;12.27;;;-3.50;99.90;;;;;;4348872;32;20220;-63
2022/01/28 10:02:00;;;;;;;20.55;12.90;;;-3.50;99.90;;;;;;4336098;32;20082;-62
2022/01/28 10:04:26;;;;;;;16.37;11.23;;;-3.30;99.90;;;;;;4348167;32;20055;-64
2022/01/28 10:06:54;;;;;;;23.42;12.27;;;-3.50;99.90;;;;;;4361722;32;20165;-63
2022/01/28 10:09:23;;;;;;;17.58;12.43;;;-3.70;99.90;;;;;;4336459;32;20086;-64
2022/01/28 10:11:54;;;;;;;21.20;14.60;;;-3.70;99.90;;;;;;4336670;32;20216;-62
2022/01/28 10:14:24;;;;;;;19.27;12.63;;;-3.80;99.90;;;;;;4336213;32;20082;-65
2022/01/28 10:16:58;;;;;;;19.12;13.30;;;-3.70;99.90;;;;;;4348094;32;20542;-63
2022/01/28 10:19:45;;;;;;;20.30;13.68;;;-3.70;99.90;;;;;;4347936;32;20086;-63
2022/01/28 10:22:19;;;;;;;;;;;-3.60;99.90;;;;;;4348659;32;20505;-63
2022/01/28 10:24:45;;;;;;;21.40;13.80;;;-3.60;99.90;;;;;;4348156;32;19978;-62
2022/01/28 10:27:12;;;;;;;20.10;12.55;;;-3.60;99.90;;;;;;4335619;32;20164;-63
2022/01/28 10:29:41;;;;;;;20.17;13.70;;;-3.60;99.90;;;;;;4335493;32;20074;-63
2022/01/28 10:32:17;;;;;;;20.10;14.93;;;-3.60;99.90;;;;;;4336226;32;20085;-62
2022/01/28 10:34:50;;;;;;;25.23;17.07;;;-3.50;99.90;;;;;;4361924;32;20589;-62
2022/01/28 10:37:24;;;;;;;22.92;15.50;;;-3.50;99.90;;;;;;4347623;32;20169;-63
2022/01/28 10:39:57;;;;;;;23.42;17.05;;;-3.60;99.90;;;;;;4334026;32;20093;-71
2022/01/28 10:42:44;;;;;;;18.20;13.02;;;-3.60;99.90;;;;;;4364161;32;20081;-69
2022/01/28 10:45:15;;;;;;;19.50;12.60;;;-3.80;99.90;;;;;;4330450;32;20168;-70
2022/01/28 10:48:02;;;;;;;16.45;12.15;;;-3.80;99.90;;;;;;4337448;32;20636;-74
2022/01/28 10:50:30;;;;;;;18.65;10.45;;;-3.70;99.90;;;;;;4350330;32;20070;-74
2022/01/28 10:53:10;;;;;;;17.35;11.52;;;-3.60;99.90;;;;;;4346625;32;20081;-73
2022/01/28 10:55:45;;;;;;;18.50;10.30;;;-3.40;99.90;;;;;;4347803;32;20059;-71
2022/01/28 10:58:16;;;;;;;14.27;9.15;;;-3.20;99.90;;;;;;4336563;32;20906;-69
2022/01/28 11:00:49;;;;;;;18.27;11.75;;;-3.20;99.90;;;;;;4365116;32;20071;-69
2022/01/28 11:03:17;;;;;;;15.20;10.38;;;-3.10;99.90;;;;;;4334394;32;20083;-71
2022/01/28 11:05:45;;;;;;;14.95;11.12;;;-3.40;99.90;;;;;;4348596;32;20074;-70
2022/01/28 11:08:15;;;;;;;13.05;8.70;;;-3.50;99.90;;;;;;4357686;32;20090;-72
2022/01/28 11:10:43;;;;;;;13.50;9.48;;;-3.60;99.90;;;;;;4347511;32;20081;-70
2022/01/28 11:13:10;;;;;;;12.23;8.70;;;-3.50;99.90;;;;;;4359799;32;20066;-70
2022/01/28 11:15:37;;;;;;;11.38;7.68;;;-3.70;99.90;;;;;;4335023;32;20086;-71
2022/01/28 11:18:05;;;;;;;11.05;7.55;;;-3.70;99.90;;;;;;4334742;32;20082;-67
2022/01/28 11:21:04;;;;;;;8.85;6.50;;;-3.70;99.90;;;;;;4347171;32;20055;-70
2022/01/28 11:23:55;;;;;;;9.27;6.30;;;-3.60;99.90;;;;;;4336611;32;20154;-66
2022/01/28 11:26:35;;;;;;;10.40;5.78;;;-3.70;99.90;;;;;;4355009;32;20082;-68
2022/01/28 11:29:18;;;;;;;9.82;6.53;;;-3.80;99.90;;;;;;4346019;32;20093;-67
2022/01/28 11:31:54;;;;;;;11.77;7.10;;;-3.70;99.90;;;;;;4344863;32;20094;-69
2022/01/28 11:34:26;;;;;;;11.57;6.93;;;-3.90;99.90;;;;;;4361361;32;20089;-70
2022/01/28 11:36:57;;;;;;;8.95;6.68;;;-4.00;99.90;;;;;;4346749;32;20163;-70
2022/01/28 11:39:35;;;;;;;10.48;7.50;;;-3.90;99.90;;;;;;4362697;32;20171;-71
2022/01/28 11:42:17;;;;;;;8.13;5.87;;;-4.00;99.90;;;;;;4349558;32;20066;-71
2022/01/28 11:44:55;;;;;;;9.25;6.37;;;-3.90;99.90;;;;;;4350793;32;20090;-72
2022/01/28 11:47:31;;;;;;;10.43;6.93;;;-3.80;99.90;;;;;;4349140;32;20577;-72
2022/01/28 11:50:08;;;;;;;9.02;6.35;;;-4.00;99.90;;;;;;4364255;32;20156;-71
2022/01/28 11:52:56;;;;;;;11.02;6.25;;;-3.70;99.90;;;;;;4324806;32;20070;-70
2022/01/28 11:55:25;;;;;;;10.18;6.72;;;-3.30;99.90;;;;;;4337773;32;20062;-70
2022/01/28 11:58:21;;;;;;;9.77;7.00;;;-3.30;99.90;;;;;;4349598;32;20062;-67
2022/01/28 14:56:25;;;;;;;11.43;7.55;;;-5.00;99.90;;;;;;3848078;37;20074;-73
2022/01/28 14:58:51;;;;;;;13.35;8.93;;;-5.00;99.90;;;;;;4391394;32;20467;-71
2022/01/28 15:01:18;;;;;;;15.70;9.52;;;-5.00;99.90;;;;;;4398919;32;20100;-70
2022/01/28 15:03:45;;;;;;;12.10;8.85;;;-5.30;99.90;;;;;;4408683;32;20062;-72
2022/01/28 15:06:15;;;;;;;17.33;10.40;;;-5.40;99.90;;;;;;4393840;32;20077;-72
2022/01/28 15:08:44;;;;;;;15.43;9.27;;;-5.50;99.90;;;;;;4414192;32;20081;-75
2022/01/28 15:11:20;;;;;;;17.45;11.30;;;-5.50;99.90;;;;;;4410596;32;20140;-71
2022/01/28 15:13:47;;;;;;;17.80;11.88;;;-5.70;99.90;;;;;;4395733;32;20062;-71
2022/01/28 15:16:16;;;;;;;17.80;10.88;;;-5.60;99.90;;;;;;4395425;32;20101;-71
2022/01/28 15:18:44;;;;;;;20.25;12.37;;;-5.70;99.90;;;;;;4390524;32;20086;-71
2022/01/28 15:21:10;;;;;;;24.02;15.02;;;-5.60;99.90;;;;;;4393298;32;20112;-64
2022/01/28 15:23:40;;;;;;;22.33;14.85;;;-5.70;99.90;;;;;;4392897;32;20161;-68
2022/01/28 15:26:06;;;;;;;21.85;12.45;;;-5.70;99.90;;;;;;4405908;32;20440;-61
2022/01/28 15:28:47;;;;;;;21.70;12.57;;;-5.60;99.90;;;;;;4380832;32;20089;-63
2022/01/28 15:34:32;;;;;;;14.43;10.18;;;-5.60;99.90;;;;;;4386392;32;20499;-62
2022/01/28 15:36:59;;;;;;;14.73;9.05;;;-5.80;99.90;;;;;;4364610;32;20097;-63
2022/01/28 15:39:25;;;;;;;15.48;9.23;;;-5.60;99.90;;;;;;4400783;32;20073;-63
2022/01/28 15:41:52;;;;;;;15.10;10.40;;;-5.60;99.90;;;;;;4375870;32;20084;-62
2022/01/28 15:44:18;;;;;;;15.02;9.35;;;-5.60;99.90;;;;;;4387784;32;20610;-63
2022/01/28 15:46:45;;;;;;;15.63;9.70;;;-5.50;99.90;;;;;;4389239;32;20070;-62
2022/01/28 15:49:12;;;;;;;16.98;9.18;;;-5.50;99.90;;;;;;4399015;32;20116;-62
2022/01/28 15:51:39;;;;;;;14.73;9.00;;;-5.50;99.90;;;;;;4387363;32;20078;-62
2022/01/28 15:54:05;;;;;;;14.82;9.60;;;-5.50;99.90;;;;;;4388198;32;20084;-63
2022/01/28 15:56:31;;;;;;;15.35;9.70;;;-5.40;99.90;;;;;;4389218;32;20576;-63
2022/01/28 15:58:57;;;;;;;17.05;9.25;;;-5.50;99.90;;;;;;4387228;32;20093;-64
2022/01/28 16:01:24;;;;;;;15.15;9.50;;;-5.50;99.90;;;;;;4375307;32;20078;-63
2022/01/28 16:06:32;;;;;;;13.10;7.93;;;-5.50;99.90;;;;;;3859698;37;20069;-63
2022/01/28 16:09:00;;;;;;;13.75;7.75;;;-5.40;99.90;;;;;;4394486;32;20183;-63
2022/01/28 16:11:33;;;;;;;14.30;8.50;;;-5.60;99.90;;;;;;4420366;32;20093;-62
2022/01/28 16:17:24;;;;;;;14.73;9.20;;;-5.70;99.90;;;;;;4393472;32;20081;-62
2022/01/28 16:19:50;;;;;;;17.90;11.18;;;-5.70;99.90;;;;;;4418704;32;20531;-62
2022/01/28 16:22:16;;;;;;;14.50;9.20;;;-5.90;99.90;;;;;;4418275;32;20522;-63
2022/01/28 16:24:43;;;;;;;15.85;10.02;;;-5.90;99.90;;;;;;4419767;32;20100;-63
2022/01/28 16:27:09;;;;;;;17.62;9.80;;;-5.90;99.90;;;;;;4419748;32;20076;-62
2022/01/28 16:29:36;;;;;;;16.90;10.25;;;-6.00;99.90;;;;;;4405435;32;20507;-63
2022/01/28 16:32:03;;;;;;;18.92;10.70;;;-6.10;99.90;;;;;;4405198;32;20089;-64
2022/01/28 16:34:29;;;;;;;16.50;10.27;;;-6.10;99.90;;;;;;4419772;32;20077;-63
2022/01/28 16:36:56;;;;;;;17.87;10.32;;;-6.00;99.90;;;;;;4418162;32;20103;-64
2022/01/28 16:39:23;;;;;;;19.30;10.55;;;-6.10;99.90;;;;;;4419158;32;20491;-63
2022/01/28 16:41:57;;;;;;;21.15;11.68;;;-6.20;99.90;;;;;;4418355;32;20152;-63
2022/01/28 16:44:24;;;;;;;16.30;9.98;;;-6.10;99.90;;;;;;4418323;32;20090;-62
2022/01/28 16:46:51;;;;;;;14.85;9.25;;;-6.10;99.90;;;;;;4417973;32;20065;-63
2022/01/28 16:49:18;;;;;;;12.88;8.68;;;-6.00;99.90;;;;;;4405266;32;20077;-62
2022/01/28 16:51:45;;;;;;;15.38;9.40;;;-6.10;99.90;;;;;;4419149;32;20107;-61
2022/01/28 16:54:12;;;;;;;15.98;8.85;;;-6.20;99.90;;;;;;4405281;32;20074;-62
2022/01/28 16:56:39;;;;;;;16.05;9.13;;;-6.20;99.90;;;;;;4420054;32;20088;-63
2022/01/28 16:59:06;;;;;;;15.48;8.70;;;-6.20;99.90;;;;;;4416910;32;20162;-62
2022/01/28 17:01:34;;;;;;;18.12;10.57;;;-6.20;99.90;;;;;;4404014;32;20081;-63
2022/01/28 17:04:01;;;;;;;15.77;11.07;;;-6.20;99.90;;;;;;4389580;32;20174;-63
2022/01/28 17:06:28;;;;;;;16.00;10.77;;;-6.30;99.90;;;;;;4402413;32;20092;-63
2022/01/28 17:08:57;;;;;;;14.02;9.45;;;-6.40;99.90;;;;;;4389612;32;20542;-63